sensor_id;sensor_type;location;lat;lon;timestamp;temperature;humidity
23207;DHT22;11773;52.570;13.052;2023-08-06T00:00:22;19.80;99.90
23207;DHT22;11773;52.570;13.052;2023-08-06T00:02:51;19.70;99.90
23207;DHT22;11773;52.570;13.052;2023-08-06T00:05:21;19.70;99.90
23207;DHT22;11773;52.570;13.052;2023-08-06T00:07:51;19.80;99.90
23207;DHT22;11773;52.570;13.052;2023-08-06T00:10:21;19.80;99.90
23207;DHT22;11773;52.570;13.052;2023-08-06T00:12:50;19.80;99.90
23207;DHT22;11773;52.570;13.052;2023-08-06T00:15:20;19.70;99.90
23207;DHT22;11773;52.570;13.052;2023-08-06T00:17:50;19.70;99.90
23207;DHT22;11773;52.570;13.052;2023-08-06T00:20:20;19.80;99.90
23207;DHT22;11773;52.570;13.052;2023-08-06T00:22:50;19.70;99.90
23207;DHT22;11773;52.570;13.052;2023-08-06T00:25:19;19.60;99.90
23207;DHT22;11773;52.570;13.052;2023-08-06T00:27:49;19.50;99.90
23207;DHT22;11773;52.570;13.052;2023-08-06T00:30:19;19.60;99.90
23207;DHT22;11773;52.570;13.052;2023-08-06T00:32:48;19.60;99.90
23207;DHT22;11773;52.570;13.052;2023-08-06T00:35:18;19.60;99.90
23207;DHT22;11773;52.570;13.052;2023-08-06T00:37:47;19.40;99.90
23207;DHT22;11773;52.570;13.052;2023-08-06T00:40:19;19.40;99.90
23207;DHT22;11773;52.570;13.052;2023-08-06T00:42:50;19.40;99.90
23207;DHT22;11773;52.570;13.052;2023-08-06T00:45:19;19.40;99.90
23207;DHT22;11773;52.570;13.052;2023-08-06T00:47:50;19.50;99.90
23207;DHT22;11773;52.570;13.052;2023-08-06T00:50:20;19.20;99.90
23207;DHT22;11773;52.570;13.052;2023-08-06T00:52:50;19.10;99.90
23207;DHT22;11773;52.570;13.052;2023-08-06T00:55:20;19.10;99.90
23207;DHT22;11773;52.570;13.052;2023-08-06T00:57:50;19.10;99.90
23207;DHT22;11773;52.570;13.052;2023-08-06T01:00:22;19.30;99.90
23207;DHT22;11773;52.570;13.052;2023-08-06T01:02:53;19.30;99.90
23207;DHT22;11773;52.570;13.052;2023-08-06T01:05:23;19.40;99.90
23207;DHT22;11773;52.570;13.052;2023-08-06T01:08:24;19.30;99.90
23207;DHT22;11773;52.570;13.052;2023-08-06T01:14:21;19.40;99.90
23207;DHT22;11773;52.570;13.052;2023-08-06T01:16:54;19.30;99.90
23207;DHT22;11773;52.570;13.052;2023-08-06T01:19:26;19.30;99.90
23207;DHT22;11773;52.570;13.052;2023-08-06T01:21:55;19.30;99.90
23207;DHT22;11773;52.570;13.052;2023-08-06T01:24:25;19.30;99.90
23207;DHT22;11773;52.570;13.052;2023-08-06T01:30:07;19.20;99.90
23207;DHT22;11773;52.570;13.052;2023-08-06T01:32:40;19.30;99.90
23207;DHT22;11773;52.570;13.052;2023-08-06T01:35:14;19.20;99.90
23207;DHT22;11773;52.570;13.052;2023-08-06T01:37:45;19.20;99.90
23207;DHT22;11773;52.570;13.052;2023-08-06T01:40:16;19.30;99.90
23207;DHT22;11773;52.570;13.052;2023-08-06T01:42:45;19.30;99.90
23207;DHT22;11773;52.570;13.052;2023-08-06T01:45:15;19.30;99.90
23207;DHT22;11773;52.570;13.052;2023-08-06T01:47:44;19.40;99.90
23207;DHT22;11773;52.570;13.052;2023-08-06T01:50:14;19.40;99.90
23207;DHT22;11773;52.570;13.052;2023-08-06T01:52:44;19.20;99.90
23207;DHT22;11773;52.570;13.052;2023-08-06T01:55:13;19.30;99.90
23207;DHT22;11773;52.570;13.052;2023-08-06T01:57:43;19.20;99.90
23207;DHT22;11773;52.570;13.052;2023-08-06T02:00:13;19.20;99.90
23207;DHT22;11773;52.570;13.052;2023-08-06T02:02:42;19.10;99.90
23207;DHT22;11773;52.570;13.052;2023-08-06T02:05:12;19.20;99.90
23207;DHT22;11773;52.570;13.052;2023-08-06T02:07:41;19.30;99.90
23207;DHT22;11773;52.570;13.052;2023-08-06T02:10:11;19.30;99.90
23207;DHT22;11773;52.570;13.052;2023-08-06T02:12:40;19.40;99.90
23207;DHT22;11773;52.570;13.052;2023-08-06T02:15:10;19.30;99.90
23207;DHT22;11773;52.570;13.052;2023-08-06T02:17:39;19.30;99.90
23207;DHT22;11773;52.570;13.052;2023-08-06T02:20:09;19.30;99.90
23207;DHT22;11773;52.570;13.052;2023-08-06T02:22:39;19.40;99.90
23207;DHT22;11773;52.570;13.052;2023-08-06T02:25:09;19.40;99.90
23207;DHT22;11773;52.570;13.052;2023-08-06T02:27:38;19.40;99.90
23207;DHT22;11773;52.570;13.052;2023-08-06T02:30:08;19.20;99.90
23207;DHT22;11773;52.570;13.052;2023-08-06T02:32:38;19.20;99.90
23207;DHT22;11773;52.570;13.052;2023-08-06T02:35:07;19.10;99.90
23207;DHT22;11773;52.570;13.052;2023-08-06T02:37:37;19.10;99.90
23207;DHT22;11773;52.570;13.052;2023-08-06T02:40:07;19.10;99.90
23207;DHT22;11773;52.570;13.052;2023-08-06T02:42:37;19.10;99.90
23207;DHT22;11773;52.570;13.052;2023-08-06T02:45:07;19.20;99.90
23207;DHT22;11773;52.570;13.052;2023-08-06T02:47:37;19.20;99.90
23207;DHT22;11773;52.570;13.052;2023-08-06T02:50:07;19.10;99.90
23207;DHT22;11773;52.570;13.052;2023-08-06T02:52:36;19.20;99.90
23207;DHT22;11773;52.570;13.052;2023-08-06T02:55:07;19.10;99.90
23207;DHT22;11773;52.570;13.052;2023-08-06T02:57:37;19.10;99.90
23207;DHT22;11773;52.570;13.052;2023-08-06T03:00:07;19.10;99.90
23207;DHT22;11773;52.570;13.052;2023-08-06T03:02:38;19.30;99.90
23207;DHT22;11773;52.570;13.052;2023-08-06T03:05:08;19.30;99.90
23207;DHT22;11773;52.570;13.052;2023-08-06T03:07:38;19.30;99.90
23207;DHT22;11773;52.570;13.052;2023-08-06T03:10:07;19.10;99.90
23207;DHT22;11773;52.570;13.052;2023-08-06T03:12:37;19.30;99.90
23207;DHT22;11773;52.570;13.052;2023-08-06T03:15:07;19.30;99.90
23207;DHT22;11773;52.570;13.052;2023-08-06T03:17:37;19.20;99.90
23207;DHT22;11773;52.570;13.052;2023-08-06T03:20:08;19.20;99.90
23207;DHT22;11773;52.570;13.052;2023-08-06T03:22:37;19.30;99.90
23207;DHT22;11773;52.570;13.052;2023-08-06T03:25:07;19.30;99.90
23207;DHT22;11773;52.570;13.052;2023-08-06T03:27:37;19.30;99.90
23207;DHT22;11773;52.570;13.052;2023-08-06T03:30:07;19.10;99.90
23207;DHT22;11773;52.570;13.052;2023-08-06T03:32:37;19.10;99.90
23207;DHT22;11773;52.570;13.052;2023-08-06T03:35:07;19.10;99.90
23207;DHT22;11773;52.570;13.052;2023-08-06T03:37:36;19.30;99.90
23207;DHT22;11773;52.570;13.052;2023-08-06T03:40:07;19.20;99.90
23207;DHT22;11773;52.570;13.052;2023-08-06T03:42:37;19.10;99.90
23207;DHT22;11773;52.570;13.052;2023-08-06T03:45:07;19.20;99.90
23207;DHT22;11773;52.570;13.052;2023-08-06T03:47:37;19.30;99.90
23207;DHT22;11773;52.570;13.052;2023-08-06T03:50:06;19.20;99.90
23207;DHT22;11773;52.570;13.052;2023-08-06T03:52:36;19.20;99.90
23207;DHT22;11773;52.570;13.052;2023-08-06T03:55:06;19.30;99.90
23207;DHT22;11773;52.570;13.052;2023-08-06T03:57:35;19.30;99.90
23207;DHT22;11773;52.570;13.052;2023-08-06T04:00:06;19.30;99.90
23207;DHT22;11773;52.570;13.052;2023-08-06T04:02:36;19.30;99.90
23207;DHT22;11773;52.570;13.052;2023-08-06T04:05:05;19.30;99.90
23207;DHT22;11773;52.570;13.052;2023-08-06T04:07:35;19.30;99.90
23207;DHT22;11773;52.570;13.052;2023-08-06T04:10:05;19.30;99.90
23207;DHT22;11773;52.570;13.052;2023-08-06T04:12:34;19.20;99.90
23207;DHT22;11773;52.570;13.052;2023-08-06T04:15:07;19.40;99.90
23207;DHT22;11773;52.570;13.052;2023-08-06T04:17:37;19.20;99.90
23207;DHT22;11773;52.570;13.052;2023-08-06T04:20:07;19.20;99.90
23207;DHT22;11773;52.570;13.052;2023-08-06T04:22:37;19.20;99.90
23207;DHT22;11773;52.570;13.052;2023-08-06T04:25:07;19.10;99.90
23207;DHT22;11773;52.570;13.052;2023-08-06T04:27:37;19.00;99.90
23207;DHT22;11773;52.570;13.052;2023-08-06T04:30:08;19.00;99.90
23207;DHT22;11773;52.570;13.052;2023-08-06T04:32:40;19.10;99.90
23207;DHT22;11773;52.570;13.052;2023-08-06T04:35:10;19.10;99.90
23207;DHT22;11773;52.570;13.052;2023-08-06T04:37:39;19.10;99.90
23207;DHT22;11773;52.570;13.052;2023-08-06T04:40:09;19.10;99.90
23207;DHT22;11773;52.570;13.052;2023-08-06T04:42:39;19.10;99.90
23207;DHT22;11773;52.570;13.052;2023-08-06T04:45:09;18.90;99.90
23207;DHT22;11773;52.570;13.052;2023-08-06T04:47:39;19.00;99.90
23207;DHT22;11773;52.570;13.052;2023-08-06T04:50:08;19.00;99.90
23207;DHT22;11773;52.570;13.052;2023-08-06T04:52:38;18.90;99.90
23207;DHT22;11773;52.570;13.052;2023-08-06T04:55:08;18.90;99.90
23207;DHT22;11773;52.570;13.052;2023-08-06T04:57:37;18.90;99.90
23207;DHT22;11773;52.570;13.052;2023-08-06T05:00:07;18.90;99.90
23207;DHT22;11773;52.570;13.052;2023-08-06T05:02:37;19.00;99.90
23207;DHT22;11773;52.570;13.052;2023-08-06T05:05:07;18.90;99.90
23207;DHT22;11773;52.570;13.052;2023-08-06T05:07:36;18.90;99.90
23207;DHT22;11773;52.570;13.052;2023-08-06T05:10:06;18.90;99.90
23207;DHT22;11773;52.570;13.052;2023-08-06T05:12:36;18.80;99.90
23207;DHT22;11773;52.570;13.052;2023-08-06T05:15:06;18.90;99.90
23207;DHT22;11773;52.570;13.052;2023-08-06T05:17:36;19.00;99.90
23207;DHT22;11773;52.570;13.052;2023-08-06T05:20:06;18.90;99.90
23207;DHT22;11773;52.570;13.052;2023-08-06T05:22:36;18.90;99.90
23207;DHT22;11773;52.570;13.052;2023-08-06T05:25:06;18.80;99.90
23207;DHT22;11773;52.570;13.052;2023-08-06T05:27:35;18.90;99.90
23207;DHT22;11773;52.570;13.052;2023-08-06T05:30:06;19.00;99.90
23207;DHT22;11773;52.570;13.052;2023-08-06T05:32:36;19.00;99.90
23207;DHT22;11773;52.570;13.052;2023-08-06T05:35:05;19.00;99.90
23207;DHT22;11773;52.570;13.052;2023-08-06T05:37:35;19.10;99.90
23207;DHT22;11773;52.570;13.052;2023-08-06T05:40:05;19.30;99.90
23207;DHT22;11773;52.570;13.052;2023-08-06T05:42:35;19.20;99.90
23207;DHT22;11773;52.570;13.052;2023-08-06T05:45:05;19.20;99.90
23207;DHT22;11773;52.570;13.052;2023-08-06T05:47:35;19.10;99.90
23207;DHT22;11773;52.570;13.052;2023-08-06T05:50:05;19.00;99.90
23207;DHT22;11773;52.570;13.052;2023-08-06T05:52:36;19.00;99.90
23207;DHT22;11773;52.570;13.052;2023-08-06T05:55:06;19.00;99.90
23207;DHT22;11773;52.570;13.052;2023-08-06T05:57:36;19.20;99.90
23207;DHT22;11773;52.570;13.052;2023-08-06T06:00:06;19.30;99.90
23207;DHT22;11773;52.570;13.052;2023-08-06T06:02:36;19.30;99.90
23207;DHT22;11773;52.570;13.052;2023-08-06T06:05:05;19.20;99.90
23207;DHT22;11773;52.570;13.052;2023-08-06T06:07:35;19.10;99.90
23207;DHT22;11773;52.570;13.052;2023-08-06T06:10:05;19.20;99.90
23207;DHT22;11773;52.570;13.052;2023-08-06T06:12:35;19.10;99.90
23207;DHT22;11773;52.570;13.052;2023-08-06T06:15:07;19.30;99.90
23207;DHT22;11773;52.570;13.052;2023-08-06T06:17:37;19.30;99.90
23207;DHT22;11773;52.570;13.052;2023-08-06T06:20:07;19.30;99.90
23207;DHT22;11773;52.570;13.052;2023-08-06T06:22:36;19.10;99.90
23207;DHT22;11773;52.570;13.052;2023-08-06T06:25:06;19.30;99.90
23207;DHT22;11773;52.570;13.052;2023-08-06T06:27:37;19.40;99.90
23207;DHT22;11773;52.570;13.052;2023-08-06T06:30:08;19.20;99.90
23207;DHT22;11773;52.570;13.052;2023-08-06T06:32:39;19.30;99.90
23207;DHT22;11773;52.570;13.052;2023-08-06T06:35:09;19.30;99.90
23207;DHT22;11773;52.570;13.052;2023-08-06T06:37:39;19.40;99.90
23207;DHT22;11773;52.570;13.052;2023-08-06T06:40:09;19.40;99.90
23207;DHT22;11773;52.570;13.052;2023-08-06T06:42:38;19.30;99.90
23207;DHT22;11773;52.570;13.052;2023-08-06T06:45:09;19.30;99.90
23207;DHT22;11773;52.570;13.052;2023-08-06T06:47:38;19.50;99.90
23207;DHT22;11773;52.570;13.052;2023-08-06T06:50:08;19.40;99.90
23207;DHT22;11773;52.570;13.052;2023-08-06T06:52:38;19.50;99.90
23207;DHT22;11773;52.570;13.052;2023-08-06T06:55:08;19.50;99.90
23207;DHT22;11773;52.570;13.052;2023-08-06T06:57:37;19.50;99.90
23207;DHT22;11773;52.570;13.052;2023-08-06T07:00:07;19.40;99.90
23207;DHT22;11773;52.570;13.052;2023-08-06T07:02:37;19.30;99.90
23207;DHT22;11773;52.570;13.052;2023-08-06T07:05:07;19.40;99.90
23207;DHT22;11773;52.570;13.052;2023-08-06T07:07:38;19.40;99.90
23207;DHT22;11773;52.570;13.052;2023-08-06T07:10:07;19.40;99.90
23207;DHT22;11773;52.570;13.052;2023-08-06T07:12:37;19.50;99.90
23207;DHT22;11773;52.570;13.052;2023-08-06T07:15:07;19.60;99.90
23207;DHT22;11773;52.570;13.052;2023-08-06T07:17:36;19.70;99.90
23207;DHT22;11773;52.570;13.052;2023-08-06T07:20:07;19.70;99.90
23207;DHT22;11773;52.570;13.052;2023-08-06T07:22:36;19.90;99.90
23207;DHT22;11773;52.570;13.052;2023-08-06T07:25:06;19.90;99.90
23207;DHT22;11773;52.570;13.052;2023-08-06T07:27:36;19.90;99.90
23207;DHT22;11773;52.570;13.052;2023-08-06T07:30:06;19.90;99.90
23207;DHT22;11773;52.570;13.052;2023-08-06T07:32:36;19.90;99.90
23207;DHT22;11773;52.570;13.052;2023-08-06T07:35:06;20.00;99.90
23207;DHT22;11773;52.570;13.052;2023-08-06T07:37:37;19.90;99.90
23207;DHT22;11773;52.570;13.052;2023-08-06T07:40:10;19.90;99.90
23207;DHT22;11773;52.570;13.052;2023-08-06T07:42:39;19.80;99.90
23207;DHT22;11773;52.570;13.052;2023-08-06T07:45:09;19.70;99.90
23207;DHT22;11773;52.570;13.052;2023-08-06T07:47:39;19.70;99.90
23207;DHT22;11773;52.570;13.052;2023-08-06T07:50:10;19.60;99.90
23207;DHT22;11773;52.570;13.052;2023-08-06T07:52:40;19.70;99.90
23207;DHT22;11773;52.570;13.052;2023-08-06T07:55:10;19.70;99.90
23207;DHT22;11773;52.570;13.052;2023-08-06T07:57:40;19.80;99.90
23207;DHT22;11773;52.570;13.052;2023-08-06T08:00:10;19.70;99.90
23207;DHT22;11773;52.570;13.052;2023-08-06T08:02:39;19.70;99.90
23207;DHT22;11773;52.570;13.052;2023-08-06T08:05:09;19.80;99.90
23207;DHT22;11773;52.570;13.052;2023-08-06T08:07:39;19.90;99.90
23207;DHT22;11773;52.570;13.052;2023-08-06T08:10:08;20.00;99.90
23207;DHT22;11773;52.570;13.052;2023-08-06T08:12:38;20.20;99.90
23207;DHT22;11773;52.570;13.052;2023-08-06T08:15:08;20.30;99.90
23207;DHT22;11773;52.570;13.052;2023-08-06T08:17:37;20.30;99.90
23207;DHT22;11773;52.570;13.052;2023-08-06T08:20:07;20.30;99.90
23207;DHT22;11773;52.570;13.052;2023-08-06T08:22:37;20.30;99.90
23207;DHT22;11773;52.570;13.052;2023-08-06T08:25:06;20.30;99.90
23207;DHT22;11773;52.570;13.052;2023-08-06T08:27:36;20.40;99.90
23207;DHT22;11773;52.570;13.052;2023-08-06T08:30:06;20.00;99.90
23207;DHT22;11773;52.570;13.052;2023-08-06T08:32:36;20.10;99.90
23207;DHT22;11773;52.570;13.052;2023-08-06T08:35:06;20.20;99.90
23207;DHT22;11773;52.570;13.052;2023-08-06T08:37:36;20.30;99.90
23207;DHT22;11773;52.570;13.052;2023-08-06T08:40:07;20.30;99.90
23207;DHT22;11773;52.570;13.052;2023-08-06T08:42:38;20.40;99.90
23207;DHT22;11773;52.570;13.052;2023-08-06T08:45:15;20.30;99.90
23207;DHT22;11773;52.570;13.052;2023-08-06T08:47:45;20.30;99.90
23207;DHT22;11773;52.570;13.052;2023-08-06T08:50:16;20.40;99.90
23207;DHT22;11773;52.570;13.052;2023-08-06T08:52:48;20.60;99.90
23207;DHT22;11773;52.570;13.052;2023-08-06T08:55:20;20.60;99.90
23207;DHT22;11773;52.570;13.052;2023-08-06T08:57:51;20.70;99.90
23207;DHT22;11773;52.570;13.052;2023-08-06T09:00:20;20.70;99.90
23207;DHT22;11773;52.570;13.052;2023-08-06T09:02:50;20.60;99.90
23207;DHT22;11773;52.570;13.052;2023-08-06T09:05:22;20.70;99.90
23207;DHT22;11773;52.570;13.052;2023-08-06T09:07:55;20.70;99.90
23207;DHT22;11773;52.570;13.052;2023-08-06T09:10:28;20.70;99.90
23207;DHT22;11773;52.570;13.052;2023-08-06T09:12:58;20.70;99.90
23207;DHT22;11773;52.570;13.052;2023-08-06T09:15:30;20.80;99.90
23207;DHT22;11773;52.570;13.052;2023-08-06T09:18:08;20.80;99.90
23207;DHT22;11773;52.570;13.052;2023-08-06T09:20:39;20.90;99.90
23207;DHT22;11773;52.570;13.052;2023-08-06T09:23:10;20.80;99.90
23207;DHT22;11773;52.570;13.052;2023-08-06T09:25:40;20.80;99.90
23207;DHT22;11773;52.570;13.052;2023-08-06T09:28:09;20.80;99.90
23207;DHT22;11773;52.570;13.052;2023-08-06T09:30:39;20.90;99.90
23207;DHT22;11773;52.570;13.052;2023-08-06T09:33:09;20.80;99.90
23207;DHT22;11773;52.570;13.052;2023-08-06T09:35:40;20.80;99.90
23207;DHT22;11773;52.570;13.052;2023-08-06T09:38:10;20.80;99.90
23207;DHT22;11773;52.570;13.052;2023-08-06T09:40:40;20.80;99.90
23207;DHT22;11773;52.570;13.052;2023-08-06T09:43:11;20.80;99.90
23207;DHT22;11773;52.570;13.052;2023-08-06T09:45:41;20.80;99.90
23207;DHT22;11773;52.570;13.052;2023-08-06T09:48:11;20.80;99.90
23207;DHT22;11773;52.570;13.052;2023-08-06T09:50:41;20.80;99.90
23207;DHT22;11773;52.570;13.052;2023-08-06T09:53:11;20.90;99.90
23207;DHT22;11773;52.570;13.052;2023-08-06T09:55:41;20.80;99.90
23207;DHT22;11773;52.570;13.052;2023-08-06T09:58:11;20.90;99.90
23207;DHT22;11773;52.570;13.052;2023-08-06T10:00:42;20.80;99.90
23207;DHT22;11773;52.570;13.052;2023-08-06T10:03:11;20.70;99.90
23207;DHT22;11773;52.570;13.052;2023-08-06T10:05:43;20.80;99.90
23207;DHT22;11773;52.570;13.052;2023-08-06T10:08:15;20.70;99.90
23207;DHT22;11773;52.570;13.052;2023-08-06T10:10:45;20.70;99.90
23207;DHT22;11773;52.570;13.052;2023-08-06T10:13:16;20.70;99.90
23207;DHT22;11773;52.570;13.052;2023-08-06T10:15:49;20.90;99.90
23207;DHT22;11773;52.570;13.052;2023-08-06T10:18:20;20.90;99.90
23207;DHT22;11773;52.570;13.052;2023-08-06T10:20:51;20.90;99.90
23207;DHT22;11773;52.570;13.052;2023-08-06T10:23:32;20.90;99.90
23207;DHT22;11773;52.570;13.052;2023-08-06T10:26:06;20.90;99.90
23207;DHT22;11773;52.570;13.052;2023-08-06T10:28:37;21.00;99.90
23207;DHT22;11773;52.570;13.052;2023-08-06T10:31:08;21.00;99.90
23207;DHT22;11773;52.570;13.052;2023-08-06T10:33:46;21.10;99.90
23207;DHT22;11773;52.570;13.052;2023-08-06T10:36:16;21.20;99.90
23207;DHT22;11773;52.570;13.052;2023-08-06T10:38:50;21.20;99.90
23207;DHT22;11773;52.570;13.052;2023-08-06T10:44:09;21.10;99.90
23207;DHT22;11773;52.570;13.052;2023-08-06T10:46:39;21.20;99.90
23207;DHT22;11773;52.570;13.052;2023-08-06T10:49:09;21.30;99.90
23207;DHT22;11773;52.570;13.052;2023-08-06T10:51:41;21.20;99.90
23207;DHT22;11773;52.570;13.052;2023-08-06T10:54:11;21.30;99.90
23207;DHT22;11773;52.570;13.052;2023-08-06T10:56:41;21.20;99.90
23207;DHT22;11773;52.570;13.052;2023-08-06T10:59:14;21.20;99.90
23207;DHT22;11773;52.570;13.052;2023-08-06T11:01:44;21.30;99.90
23207;DHT22;11773;52.570;13.052;2023-08-06T11:04:14;21.40;99.90
23207;DHT22;11773;52.570;13.052;2023-08-06T11:06:51;21.40;99.90
23207;DHT22;11773;52.570;13.052;2023-08-06T11:09:19;21.50;99.90
23207;DHT22;11773;52.570;13.052;2023-08-06T11:11:48;21.50;99.90
23207;DHT22;11773;52.570;13.052;2023-08-06T11:14:19;21.50;99.90
23207;DHT22;11773;52.570;13.052;2023-08-06T11:16:49;21.50;99.90
23207;DHT22;11773;52.570;13.052;2023-08-06T11:19:20;21.50;99.90
23207;DHT22;11773;52.570;13.052;2023-08-06T11:21:51;21.50;99.90
23207;DHT22;11773;52.570;13.052;2023-08-06T11:24:23;21.50;99.90
23207;DHT22;11773;52.570;13.052;2023-08-06T11:26:53;21.50;99.90
23207;DHT22;11773;52.570;13.052;2023-08-06T11:29:22;21.50;99.90
23207;DHT22;11773;52.570;13.052;2023-08-06T11:31:52;21.60;99.90
23207;DHT22;11773;52.570;13.052;2023-08-06T11:34:22;21.70;99.90
23207;DHT22;11773;52.570;13.052;2023-08-06T11:36:52;21.70;99.90
23207;DHT22;11773;52.570;13.052;2023-08-06T11:39:21;21.70;99.90
23207;DHT22;11773;52.570;13.052;2023-08-06T11:41:52;21.60;99.90
23207;DHT22;11773;52.570;13.052;2023-08-06T11:44:22;21.60;99.90
23207;DHT22;11773;52.570;13.052;2023-08-06T11:46:54;21.70;99.90
23207;DHT22;11773;52.570;13.052;2023-08-06T11:49:47;21.70;99.90
23207;DHT22;11773;52.570;13.052;2023-08-06T11:52:21;21.70;99.90
23207;DHT22;11773;52.570;13.052;2023-08-06T11:55:05;21.80;99.90
23207;DHT22;11773;52.570;13.052;2023-08-06T11:57:43;21.70;99.90
23207;DHT22;11773;52.570;13.052;2023-08-06T12:00:15;21.80;99.90
23207;DHT22;11773;52.570;13.052;2023-08-06T12:02:50;21.70;99.90
23207;DHT22;11773;52.570;13.052;2023-08-06T12:05:28;21.60;99.90
23207;DHT22;11773;52.570;13.052;2023-08-06T12:08:01;21.60;99.90
23207;DHT22;11773;52.570;13.052;2023-08-06T12:10:28;21.60;99.90
23207;DHT22;11773;52.570;13.052;2023-08-06T12:12:59;21.40;99.90
23207;DHT22;11773;52.570;13.052;2023-08-06T12:15:30;21.60;99.90
23207;DHT22;11773;52.570;13.052;2023-08-06T12:18:00;21.70;99.90
23207;DHT22;11773;52.570;13.052;2023-08-06T12:20:30;21.60;99.90
23207;DHT22;11773;52.570;13.052;2023-08-06T12:22:59;21.80;99.90
23207;DHT22;11773;52.570;13.052;2023-08-06T12:25:29;21.70;99.90
23207;DHT22;11773;52.570;13.052;2023-08-06T12:27:59;21.80;99.90
23207;DHT22;11773;52.570;13.052;2023-08-06T12:30:29;21.50;99.90
23207;DHT22;11773;52.570;13.052;2023-08-06T12:32:58;21.60;99.90
23207;DHT22;11773;52.570;13.052;2023-08-06T12:35:28;21.90;99.90
23207;DHT22;11773;52.570;13.052;2023-08-06T12:37:58;21.80;99.90
23207;DHT22;11773;52.570;13.052;2023-08-06T12:40:27;21.80;99.90
23207;DHT22;11773;52.570;13.052;2023-08-06T12:42:58;21.90;99.90
23207;DHT22;11773;52.570;13.052;2023-08-06T12:45:28;21.90;99.90
23207;DHT22;11773;52.570;13.052;2023-08-06T12:47:58;21.90;99.90
23207;DHT22;11773;52.570;13.052;2023-08-06T12:50:27;21.70;99.90
23207;DHT22;11773;52.570;13.052;2023-08-06T12:52:57;21.80;99.90
23207;DHT22;11773;52.570;13.052;2023-08-06T12:55:26;21.90;99.90
23207;DHT22;11773;52.570;13.052;2023-08-06T12:57:58;21.70;99.90
23207;DHT22;11773;52.570;13.052;2023-08-06T13:00:27;21.90;99.90
23207;DHT22;11773;52.570;13.052;2023-08-06T13:02:57;21.80;99.90
23207;DHT22;11773;52.570;13.052;2023-08-06T13:05:27;21.70;99.90
23207;DHT22;11773;52.570;13.052;2023-08-06T13:07:57;21.90;99.90
23207;DHT22;11773;52.570;13.052;2023-08-06T13:10:26;21.80;99.90
23207;DHT22;11773;52.570;13.052;2023-08-06T13:12:57;21.70;99.90
23207;DHT22;11773;52.570;13.052;2023-08-06T13:15:26;21.70;99.90
23207;DHT22;11773;52.570;13.052;2023-08-06T13:17:56;21.80;99.90
23207;DHT22;11773;52.570;13.052;2023-08-06T13:20:25;21.70;99.90
23207;DHT22;11773;52.570;13.052;2023-08-06T13:22:55;21.80;99.90
23207;DHT22;11773;52.570;13.052;2023-08-06T13:25:27;22.00;99.90
23207;DHT22;11773;52.570;13.052;2023-08-06T13:27:57;22.00;99.90
23207;DHT22;11773;52.570;13.052;2023-08-06T13:30:26;22.00;99.90
23207;DHT22;11773;52.570;13.052;2023-08-06T13:32:56;21.90;99.90
23207;DHT22;11773;52.570;13.052;2023-08-06T13:35:26;21.90;99.90
23207;DHT22;11773;52.570;13.052;2023-08-06T13:37:55;21.50;99.90
23207;DHT22;11773;52.570;13.052;2023-08-06T13:40:25;21.60;99.90
23207;DHT22;11773;52.570;13.052;2023-08-06T13:42:54;21.70;99.90
23207;DHT22;11773;52.570;13.052;2023-08-06T13:45:25;21.70;99.90
23207;DHT22;11773;52.570;13.052;2023-08-06T13:47:55;21.80;99.90
23207;DHT22;11773;52.570;13.052;2023-08-06T13:50:25;21.80;99.90
23207;DHT22;11773;52.570;13.052;2023-08-06T13:52:55;21.60;99.90
23207;DHT22;11773;52.570;13.052;2023-08-06T13:55:25;21.60;99.90
23207;DHT22;11773;52.570;13.052;2023-08-06T13:57:55;21.50;99.90
23207;DHT22;11773;52.570;13.052;2023-08-06T14:00:25;21.40;99.90
23207;DHT22;11773;52.570;13.052;2023-08-06T14:02:54;20.90;99.90
23207;DHT22;11773;52.570;13.052;2023-08-06T14:05:24;20.70;99.90
23207;DHT22;11773;52.570;13.052;2023-08-06T14:07:54;20.90;99.90
23207;DHT22;11773;52.570;13.052;2023-08-06T14:10:24;20.90;99.90
23207;DHT22;11773;52.570;13.052;2023-08-06T14:12:53;20.50;99.90
23207;DHT22;11773;52.570;13.052;2023-08-06T14:15:24;20.50;99.90
23207;DHT22;11773;52.570;13.052;2023-08-06T14:17:54;20.90;99.90
23207;DHT22;11773;52.570;13.052;2023-08-06T14:20:24;20.90;99.90
23207;DHT22;11773;52.570;13.052;2023-08-06T14:22:54;21.00;99.90
23207;DHT22;11773;52.570;13.052;2023-08-06T14:25:23;21.10;99.90
23207;DHT22;11773;52.570;13.052;2023-08-06T14:27:53;21.00;99.90
23207;DHT22;11773;52.570;13.052;2023-08-06T14:30:22;21.00;99.90
23207;DHT22;11773;52.570;13.052;2023-08-06T14:32:52;21.00;99.90
23207;DHT22;11773;52.570;13.052;2023-08-06T14:35:22;21.10;99.90
23207;DHT22;11773;52.570;13.052;2023-08-06T14:37:52;21.00;99.90
23207;DHT22;11773;52.570;13.052;2023-08-06T14:40:21;21.10;99.90
23207;DHT22;11773;52.570;13.052;2023-08-06T14:42:53;21.00;99.90
23207;DHT22;11773;52.570;13.052;2023-08-06T14:45:22;20.90;99.90
23207;DHT22;11773;52.570;13.052;2023-08-06T14:47:52;21.00;99.90
23207;DHT22;11773;52.570;13.052;2023-08-06T14:50:22;21.10;99.90
23207;DHT22;11773;52.570;13.052;2023-08-06T14:52:52;21.00;99.90
23207;DHT22;11773;52.570;13.052;2023-08-06T14:55:27;20.90;99.90
23207;DHT22;11773;52.570;13.052;2023-08-06T14:57:57;21.00;99.90
23207;DHT22;11773;52.570;13.052;2023-08-06T15:00:27;21.10;99.90
23207;DHT22;11773;52.570;13.052;2023-08-06T15:02:57;21.10;99.90
23207;DHT22;11773;52.570;13.052;2023-08-06T15:05:26;21.10;99.90
23207;DHT22;11773;52.570;13.052;2023-08-06T15:07:56;21.10;99.90
23207;DHT22;11773;52.570;13.052;2023-08-06T15:10:26;21.00;99.90
23207;DHT22;11773;52.570;13.052;2023-08-06T15:12:55;21.10;99.90
23207;DHT22;11773;52.570;13.052;2023-08-06T15:15:26;21.10;99.90
23207;DHT22;11773;52.570;13.052;2023-08-06T15:17:56;21.20;99.90
23207;DHT22;11773;52.570;13.052;2023-08-06T15:20:26;21.10;99.90
23207;DHT22;11773;52.570;13.052;2023-08-06T15:22:55;21.10;99.90
23207;DHT22;11773;52.570;13.052;2023-08-06T15:25:25;21.10;99.90
23207;DHT22;11773;52.570;13.052;2023-08-06T15:27:55;21.10;99.90
23207;DHT22;11773;52.570;13.052;2023-08-06T15:30:25;21.10;99.90
23207;DHT22;11773;52.570;13.052;2023-08-06T15:32:54;21.10;99.90
23207;DHT22;11773;52.570;13.052;2023-08-06T15:35:24;21.10;99.90
23207;DHT22;11773;52.570;13.052;2023-08-06T15:37:54;21.10;99.90
23207;DHT22;11773;52.570;13.052;2023-08-06T15:40:23;21.10;99.90
23207;DHT22;11773;52.570;13.052;2023-08-06T15:42:54;21.10;99.90